SBOSBO AUS / KAUS
Speedbird OnlineSpeedbird Online AUS / KAUS

Austin Bergstrom International Airport
11:35 30.6°C

Location Austin, United States
Latitude: 30.194499969482422
Longitude: -97.6698989868164
Local Time 11:35 on 30 May 2024
UTC -5 hours (America/Chicago)
Currency £1 equals USD 1.27
METAR KAUS 301553Z 16013G21KT 10SM SCT025 BKN033 30/24 A2995 RMK AO2 SLP128 T03000239
TAF KAUS 301458Z 3015/3118 18012KT P6SM SCT020 TEMPO 3015/3017 BKN020 FM301700 15014KT P6SM SCT050 FM310100 12009KT P6SM BKN050 FM310600 16009KT P6SM OVC015 PROB30 3108/3112 -TSRA BKN007CB
Weather As Of 30 May 2024 11:34
Description Broken clouds
Wind 24 km/h from South (160°)
Cloud Cover 75%
Precipitation Rain: none, Snow: none
Sunrise 06:30
Sunset 20:26
NOTAM 20 active NOTAM
Rotations During the last 90 days there were
82 flights from LHR
80 flights to LHR
1 flights to IAH
Lounges American Airlines Admirals Club, Main Terminal
Web Airport Website | Wikipedia
Codes IATA: AUS
ICAO: KAUS
Altitude 165 Meter / 542 Feet
Distance 7,928 KM / 4,926 Miles
from London.
Runways
RunwayLength (m)Surface
18L2743Concrete
18R3733Concrete
36L3733Concrete
36R2743Concrete
Radio
TypeDescriptionFrequency
A/DAPP/DEP118.8
ASOSASOS128.875
ATISATIS124.4
CLDCLNC DEL125.5
GNDGND121.7
OPSARNG OPS36.8
RDOSAN ANGELO RDO122.55
TWRTWR121
UNICUNICOM122.95
Live ATC



Support Speedbird Online

© 2017-2024 Speedbird Online